Time;durP1;ratioP1;P1;durP2;ratioP2;P2;SDS_P1;SDS_P2;PMS_P1;PMS_P2;Temp;Humidity;BMP_temperature;BMP_pressure;BME280_temperature;BME280_humidity;BME280_pressure;Samples;Min_cycle;Max_cycle;Signal;HPM_P1;HPM_P2
2021/11/22 00:01:31;;;;;;;;;9.50;8.25;;;;;8.80;65.67;101587.53;5057396;28;47308;-81
2021/11/22 00:03:56;;;;;;;;;8.50;8.00;;;;;8.81;65.88;101586.66;5057240;28;45554;-81
2021/11/22 00:06:22;;;;;;;;;6.25;6.25;;;;;8.77;65.60;101578.81;5061123;28;45470;-81
2021/11/22 00:08:48;;;;;;;;;10.00;7.50;;;;;8.80;65.91;101587.53;5062299;28;45399;-82
2021/11/22 00:11:13;;;;;;;;;7.00;6.75;;;;;8.82;66.29;101591.88;5048893;28;45469;-82
2021/11/22 00:13:39;;;;;;;;;10.75;7.75;;;;;8.84;66.11;101597.13;5061245;28;45181;-82
2021/11/22 00:16:04;;;;;;;;;14.00;9.00;;;;;8.78;65.84;101593.69;5060539;28;45250;-82
2021/11/22 00:18:30;;;;;;;;;12.00;8.50;;;;;8.75;65.43;101584.97;5062518;28;45169;-80
2021/11/22 00:20:56;;;;;;;;;10.25;9.25;;;;;8.76;65.62;101589.34;5048650;28;46261;-81
2021/11/22 00:23:21;;;;;;;;;8.25;8.25;;;;;8.76;65.87;101589.34;5047607;28;46026;-81
2021/11/22 00:25:47;;;;;;;;;9.50;8.75;;;;;8.75;65.71;101585.84;5055878;28;45402;-81
2021/11/22 00:28:13;;;;;;;;;10.25;9.00;;;;;8.71;65.95;101584.16;5062216;28;45496;-81
2021/11/22 00:30:38;;;;;;;;;9.00;7.25;;;;;8.72;65.48;101588.50;5050444;28;45448;-80
2021/11/22 00:33:04;;;;;;;;;10.75;8.00;;;;;8.73;65.54;101587.63;5060820;28;45341;-80
2021/11/22 00:35:33;;;;;;;;;10.00;10.00;;;;;8.70;65.77;101592.00;5062193;28;45444;-78
2021/11/22 00:38:00;;;;;;;;;15.00;9.75;;;;;8.68;65.46;101599.91;5061025;28;45327;-81
2021/11/22 00:40:26;;;;;;;;;8.25;7.25;;;;;8.65;65.65;101597.31;5057275;28;46251;-80
2021/11/22 00:42:52;;;;;;;;;7.00;7.00;;;;;8.63;65.91;101592.09;5062212;28;45172;-81
2021/11/22 00:45:18;;;;;;;;;9.75;8.25;;;;;8.61;66.08;101595.63;5047341;28;45415;-81
2021/11/22 00:47:44;;;;;;;;;10.25;10.00;;;;;8.56;65.74;101598.25;5060908;28;45593;-81
2021/11/22 00:50:09;;;;;;;;;9.50;9.25;;;;;8.55;66.23;101602.63;5053711;28;45980;-81
2021/11/22 00:52:35;;;;;;;;;8.25;8.25;;;;;8.52;66.01;101604.44;5071629;28;45422;-81
2021/11/22 00:55:01;;;;;;;;;7.25;7.25;;;;;8.53;66.08;101612.25;5060001;28;45472;-81
2021/11/22 00:57:26;;;;;;;;;9.50;7.50;;;;;8.50;65.90;101606.16;5061674;28;45442;-82
2021/11/22 00:59:52;;;;;;;;;9.75;7.75;;;;;8.44;65.84;101618.44;5056136;28;46274;-82
2021/11/22 01:02:17;;;;;;;;;8.00;7.25;;;;;8.40;65.70;101615.88;5053752;28;45291;-82
2021/11/22 01:04:43;;;;;;;;;9.25;8.50;;;;;8.40;66.38;101623.72;5046921;28;45944;-82
2021/11/22 01:07:08;;;;;;;;;13.75;8.75;;;;;8.35;66.15;101622.91;5048561;28;45205;-82
2021/11/22 01:09:33;;;;;;;;;12.00;9.25;;;;;8.38;66.07;101625.50;5059028;28;45357;-85
2021/11/22 01:11:59;;;;;;;;;9.00;9.00;;;;;8.36;66.50;101636.00;5049185;28;45306;-87
2021/11/22 01:14:25;;;;;;;;;13.00;9.25;;;;;8.37;65.81;101631.66;5058911;28;45218;-82
2021/11/22 01:16:51;;;;;;;;;10.25;9.25;;;;;8.39;66.18;101638.59;5061499;28;45504;-82
2021/11/22 01:19:17;;;;;;;;;10.00;9.25;;;;;8.39;66.38;101643.84;5061274;28;46098;-82
2021/11/22 01:21:42;;;;;;;;;7.75;7.00;;;;;8.37;66.30;101636.88;5047681;28;45168;-79
2021/11/22 01:24:08;;;;;;;;;12.75;8.50;;;;;8.36;66.32;101643.00;5047635;28;45484;-79
2021/11/22 01:26:33;;;;;;;;;8.50;8.00;;;;;8.35;65.94;101638.63;5061001;28;45574;-80
2021/11/22 01:28:59;;;;;;;;;11.00;8.00;;;;;8.35;66.03;101636.88;5066387;28;47217;-78
2021/11/22 01:31:24;;;;;;;;;12.00;9.00;;;;;8.38;66.12;101644.72;5045426;28;45378;-79
2021/11/22 01:33:50;;;;;;;;;10.25;8.00;;;;;8.40;66.10;101642.06;5064726;28;45714;-79
2021/11/22 01:36:15;;;;;;;;;10.50;8.25;;;;;8.43;65.74;101655.16;5057976;28;45305;-79
2021/11/22 01:38:40;;;;;;;;;11.25;7.00;;;;;8.44;66.02;101644.66;5059683;28;46902;-80
2021/11/22 01:41:06;;;;;;;;;9.75;8.75;;;;;8.47;65.59;101656.00;5056590;28;45331;-81
2021/11/22 01:43:32;;;;;;;;;8.75;8.75;;;;;8.49;66.07;101649.88;5052961;28;45575;-83
2021/11/22 01:45:57;;;;;;;;;9.75;7.75;;;;;8.49;65.93;101655.09;5045362;28;45587;-81
2021/11/22 01:48:23;;;;;;;;;13.50;7.50;;;;;8.48;65.87;101650.75;5056887;28;45370;-81
2021/11/22 01:50:49;;;;;;;;;15.50;8.00;;;;;8.49;65.78;101656.84;5044518;28;45422;-81
2021/11/22 01:53:16;;;;;;;;;10.75;6.00;;;;;8.49;65.44;101659.47;5053908;28;45338;-79
2021/11/22 01:55:44;;;;;;;;;13.25;10.25;;;;;8.46;65.97;101651.63;5052533;28;45415;-79
2021/11/22 01:58:10;;;;;;;;;6.75;6.75;;;;;8.50;65.58;101661.19;5060668;28;46422;-79
2021/11/22 02:00:40;;;;;;;;;10.25;8.50;;;;;8.49;65.43;101665.59;5051264;28;45483;-79
2021/11/22 02:03:06;;;;;;;;;8.75;7.00;;;;;8.50;65.71;101669.06;5054086;28;45225;-79
2021/11/22 02:05:33;;;;;;;;;12.75;8.75;;;;;8.51;65.63;101669.06;5050421;28;45283;-79
2021/11/22 02:07:58;;;;;;;;;13.00;9.00;;;;;8.50;65.87;101659.44;5060461;28;45606;-83
2021/11/22 02:10:25;;;;;;;;;9.75;8.50;;;;;8.47;65.09;101675.19;5051295;28;45509;-83
2021/11/22 02:12:50;;;;;;;;;14.25;12.50;;;;;8.48;65.38;101671.69;5052715;28;45374;-82
2021/11/22 02:15:16;;;;;;;;;9.25;8.25;;;;;8.44;65.05;101675.25;5058285;28;46076;-83
2021/11/22 02:17:46;;;;;;;;;9.50;9.25;;;;;8.39;65.06;101672.66;5059116;28;46899;-80
2021/11/22 02:20:23;;;;;;;;;11.50;8.00;;;;;8.39;65.34;101680.53;5059343;28;45796;-80
2021/11/22 02:22:49;;;;;;;;;8.50;6.50;;;;;8.37;65.12;101674.41;5059649;28;45385;-79
2021/11/22 02:25:17;;;;;;;;;12.00;6.50;;;;;8.37;65.02;101678.78;5060337;28;45542;-79
2021/11/22 02:27:44;;;;;;;;;16.25;9.50;;;;;8.36;65.31;101679.66;5060187;28;46380;-79
2021/11/22 02:30:12;;;;;;;;;12.00;8.00;;;;;8.34;65.36;101682.31;5052790;28;45149;-79
2021/11/22 02:32:40;;;;;;;;;7.00;6.25;;;;;8.29;65.53;101691.94;5051814;28;45619;-78
2021/11/22 02:35:09;;;;;;;;;9.75;9.75;;;;;8.27;65.46;101680.63;5044854;28;45325;-78
2021/11/22 02:37:34;;;;;;;;;8.00;6.75;;;;;8.25;64.66;101691.09;5039715;28;46826;-80
2021/11/22 02:40:00;;;;;;;;;8.50;8.50;;;;;8.25;65.15;101680.63;5046782;28;45476;-80
2021/11/22 02:42:28;;;;;;;;;11.00;7.00;;;;;8.26;64.97;101690.22;5059360;28;45207;-80
2021/11/22 02:44:54;;;;;;;;;10.00;6.50;;;;;8.20;65.22;101690.25;5059883;28;45483;-79
2021/11/22 02:47:21;;;;;;;;;13.75;8.50;;;;;8.20;65.42;101698.09;5060155;28;45521;-80
2021/11/22 02:49:47;;;;;;;;;9.50;7.75;;;;;8.18;65.28;101689.41;5044199;28;46826;-79
2021/11/22 02:52:13;;;;;;;;;8.00;8.00;;;;;8.18;65.54;101687.66;5059963;28;45355;-79
2021/11/22 02:54:39;;;;;;;;;9.50;7.25;;;;;8.21;65.49;101689.38;5059816;28;45492;-79
2021/11/22 02:57:05;;;;;;;;;11.25;7.25;;;;;8.19;65.36;101693.78;5057060;28;46547;-79
2021/11/22 02:59:30;;;;;;;;;9.50;9.25;;;;;8.17;65.43;101692.91;5046246;28;45202;-80
2021/11/22 03:01:56;;;;;;;;;9.25;8.50;;;;;8.13;65.12;101692.06;5060153;28;45199;-80
2021/11/22 03:04:35;;;;;;;;;6.50;5.50;;;;;8.08;65.39;101692.09;5050591;28;45367;-79
2021/11/22 03:07:01;;;;;;;;;9.50;7.75;;;;;8.08;65.30;101689.47;5052911;28;45435;-79
2021/11/22 03:09:27;;;;;;;;;11.00;9.00;;;;;8.05;65.53;101694.72;5046772;28;45449;-79
2021/11/22 03:11:58;;;;;;;;;7.00;7.00;;;;;8.06;65.10;101706.94;5059404;28;45473;-78
2021/11/22 03:14:25;;;;;;;;;9.75;7.25;;;;;8.02;65.32;101700.00;5059706;28;45310;-78
2021/11/22 03:16:50;;;;;;;;;8.50;6.50;;;;;7.97;65.55;101699.16;5059763;28;45492;-78
2021/11/22 03:19:16;;;;;;;;;7.75;6.75;;;;;7.94;65.33;101707.03;5042320;28;45424;-78
2021/11/22 03:21:41;;;;;;;;;8.50;8.50;;;;;7.96;65.45;101710.50;5056944;28;45419;-79
2021/11/22 03:24:07;;;;;;;;;8.25;8.25;;;;;7.95;65.68;101709.63;5059785;28;45501;-79
2021/11/22 03:26:32;;;;;;;;;7.25;6.75;;;;;7.94;65.41;101717.50;5057728;28;45449;-79
2021/11/22 03:28:58;;;;;;;;;7.25;6.75;;;;;7.94;65.49;101722.72;5055325;28;45275;-79
2021/11/22 03:31:23;;;;;;;;;13.00;11.00;;;;;7.93;65.41;101718.38;5051557;28;45163;-79
2021/11/22 03:33:49;;;;;;;;;6.00;5.50;;;;;7.90;65.44;101727.13;5051351;28;45419;-79
2021/11/22 03:36:14;;;;;;;;;11.75;8.75;;;;;7.86;65.02;101721.03;5039893;28;46325;-81
2021/11/22 03:38:41;;;;;;;;;12.50;9.50;;;;;7.84;65.51;101728.03;5059251;28;45271;-80
2021/11/22 03:41:12;;;;;;;;;8.25;7.00;;;;;7.82;65.36;101737.66;5057365;28;45246;-80
2021/11/22 03:43:50;;;;;;;;;10.75;10.00;;;;;7.79;65.50;101734.16;5047926;28;45324;-81
2021/11/22 03:46:17;;;;;;;;;10.50;8.25;;;;;7.73;65.22;101727.22;5044968;28;46293;-80
2021/11/22 03:48:43;;;;;;;;;7.75;7.75;;;;;7.73;65.04;101740.31;5071395;28;46010;-80
2021/11/22 03:51:08;;;;;;;;;13.00;10.50;;;;;7.70;65.23;101738.56;5059100;28;45472;-80
2021/11/22 03:53:34;;;;;;;;;12.50;9.25;;;;;7.68;65.53;101742.06;5058932;28;45401;-80
2021/11/22 03:55:59;;;;;;;;;9.75;8.25;;;;;7.65;65.76;101735.94;5057543;28;45636;-80
2021/11/22 03:58:25;;;;;;;;;10.25;7.25;;;;;7.63;65.49;101748.19;5059148;28;45472;-81
2021/11/22 04:00:51;;;;;;;;;15.00;10.00;;;;;7.63;65.86;101745.56;5059356;28;45287;-81
2021/11/22 04:03:16;;;;;;;;;8.25;7.00;;;;;7.61;65.64;101760.41;5059081;28;45416;-84
2021/11/22 04:05:41;;;;;;;;;11.00;9.75;;;;;7.64;65.68;101751.66;5049852;28;45498;-80
2021/11/22 04:08:08;;;;;;;;;12.00;10.00;;;;;7.65;65.70;101758.66;5054796;28;45370;-80
2021/11/22 04:10:37;;;;;;;;;11.25;10.25;;;;;7.65;65.35;101766.50;5047657;28;45793;-81
2021/11/22 04:13:05;;;;;;;;;14.50;11.00;;;;;7.61;65.26;101762.16;5055199;28;45642;-81
2021/11/22 04:15:30;;;;;;;;;10.50;9.50;;;;;7.63;65.44;101766.50;5051611;28;46373;-82
2021/11/22 04:17:56;;;;;;;;;8.25;8.25;;;;;7.61;65.48;101760.41;5050725;28;45727;-82
2021/11/22 04:20:21;;;;;;;;;12.00;8.50;;;;;7.61;65.63;101768.25;5056073;28;45593;-84
2021/11/22 04:22:47;;;;;;;;;11.25;11.00;;;;;7.62;65.45;101763.91;5058795;28;45362;-83
2021/11/22 04:25:13;;;;;;;;;12.50;11.50;;;;;7.60;65.42;101763.03;5052417;28;46451;-81
2021/11/22 04:27:39;;;;;;;;;12.50;8.50;;;;;7.59;65.57;101774.38;5050315;28;45180;-82
2021/11/22 04:30:08;;;;;;;;;12.50;11.50;;;;;7.53;65.22;101770.91;5054490;28;45174;-81
2021/11/22 04:32:35;;;;;;;;;12.75;10.00;;;;;7.52;65.21;101777.03;5050745;28;45473;-81
2021/11/22 04:35:00;;;;;;;;;2.75;2.75;;;;;7.52;65.38;101771.78;5058242;28;45353;-83
2021/11/22 04:37:28;;;;;;;;;14.25;11.75;;;;;7.54;65.44;101783.13;5050006;28;45444;-81
2021/11/22 04:39:54;;;;;;;;;13.00;12.50;;;;;7.54;65.52;101788.34;5062222;28;45169;-81
2021/11/22 04:42:20;;;;;;;;;17.50;13.00;;;;;7.50;65.49;101793.59;5062132;28;45556;-81
2021/11/22 04:44:45;;;;;;;;;13.50;10.75;;;;;7.49;65.76;101797.94;5061574;28;45543;-81
2021/11/22 04:47:12;;;;;;;;;14.50;11.00;;;;;7.48;65.50;101797.97;5055197;28;45422;-81
2021/11/22 04:49:39;;;;;;;;;14.00;12.00;;;;;7.46;65.57;101804.94;5061870;28;45376;-81
2021/11/22 04:52:07;;;;;;;;;18.00;13.75;;;;;7.43;66.02;101805.84;5061566;28;46392;-79
2021/11/22 04:54:34;;;;;;;;;13.00;12.00;;;;;7.46;66.08;101811.03;5061970;28;46319;-79
2021/11/22 04:57:02;;;;;;;;;15.75;12.25;;;;;7.47;66.14;101815.41;5048205;28;45736;-79
2021/11/22 04:59:27;;;;;;;;;12.25;9.75;;;;;7.51;65.69;101811.00;5062102;28;45243;-81
2021/11/22 05:01:52;;;;;;;;;14.75;14.00;;;;;7.50;66.02;101818.03;5061668;28;45516;-81
2021/11/22 05:04:18;;;;;;;;;17.50;14.50;;;;;7.47;65.73;101815.41;5062018;28;45437;-80
2021/11/22 05:06:43;;;;;;;;;15.00;13.00;;;;;7.49;65.79;101825.84;5047879;28;45322;-80
2021/11/22 05:09:08;;;;;;;;;13.50;12.00;;;;;7.50;65.61;101825.00;5061702;28;45748;-80
2021/11/22 05:11:34;;;;;;;;;16.25;15.25;;;;;7.53;65.88;101832.84;5061291;28;45551;-84
2021/11/22 05:13:59;;;;;;;;;16.25;13.00;;;;;7.55;65.96;101831.09;5054300;28;45468;-83
2021/11/22 05:16:24;;;;;;;;;14.00;14.00;;;;;7.56;65.60;101829.31;5052710;28;45477;-84
2021/11/22 05:18:50;;;;;;;;;17.00;15.75;;;;;7.56;65.44;101835.44;5050549;28;45394;-84
2021/11/22 05:21:16;;;;;;;;;17.75;15.00;;;;;7.56;65.42;101838.03;5061143;28;45463;-84
2021/11/22 05:23:42;;;;;;;;;19.75;12.50;;;;;7.57;65.64;101842.41;5058207;28;45484;-84
2021/11/22 05:26:07;;;;;;;;;17.25;12.00;;;;;7.54;65.33;101837.19;5061401;28;45330;-80
2021/11/22 05:28:32;;;;;;;;;15.25;14.00;;;;;7.55;65.99;101841.56;5060030;28;45423;-80
2021/11/22 05:30:58;;;;;;;;;13.50;12.75;;;;;7.56;65.82;101838.03;5050713;28;45400;-81
2021/11/22 05:33:23;;;;;;;;;15.50;12.50;;;;;7.54;66.12;101851.13;5056952;28;46235;-82
2021/11/22 05:35:48;;;;;;;;;21.50;15.25;;;;;7.55;65.48;101846.78;5054122;28;45417;-83
2021/11/22 05:38:14;;;;;;;;;13.25;13.25;;;;;7.55;65.77;101857.25;5061050;28;45465;-82
2021/11/22 05:40:39;;;;;;;;;14.00;14.00;;;;;7.52;65.61;101852.00;5061117;28;45258;-81
2021/11/22 05:43:05;;;;;;;;;18.00;14.00;;;;;7.51;66.00;101865.97;5061102;28;46377;-81
2021/11/22 05:45:30;;;;;;;;;16.25;13.50;;;;;7.51;65.93;101881.66;5050253;28;45265;-81
2021/11/22 05:47:55;;;;;;;;;14.50;12.75;;;;;7.46;66.24;101872.97;5070062;28;45667;-81
2021/11/22 05:50:22;;;;;;;;;29.75;20.75;;;;;7.44;66.13;101880.81;5060468;28;45248;-81
2021/11/22 05:52:51;;;;;;;;;22.00;18.25;;;;;7.47;66.46;101877.31;5060661;28;45391;-84
2021/11/22 05:55:29;;;;;;;;;22.50;17.50;;;;;7.46;66.39;101873.81;5049228;28;46060;-84
2021/11/22 05:57:54;;;;;;;;;20.75;16.25;;;;;7.45;66.21;101877.31;5052192;28;45307;-86
2021/11/22 06:00:20;;;;;;;;;20.25;16.50;;;;;7.51;66.04;101879.91;5068766;28;46092;-81
2021/11/22 06:02:45;;;;;;;;;22.00;20.50;;;;;7.53;66.34;101891.25;5047245;28;46024;-82
2021/11/22 06:05:10;;;;;;;;;21.00;19.50;;;;;7.56;66.33;101890.38;5058846;28;45247;-82
2021/11/22 06:07:38;;;;;;;;;24.50;21.50;;;;;7.54;66.57;101902.59;5054917;28;45432;-82
2021/11/22 06:10:04;;;;;;;;;22.25;22.00;;;;;7.54;66.32;101902.59;5058243;28;45495;-82
2021/11/22 06:12:30;;;;;;;;;23.00;18.75;;;;;7.58;65.87;101903.47;5057947;28;45424;-82
2021/11/22 06:14:57;;;;;;;;;24.25;17.25;;;;;7.59;66.43;101903.47;5050523;28;45448;-82
2021/11/22 06:17:22;;;;;;;;;18.75;15.25;;;;;7.62;66.03;101916.53;5054812;28;45552;-81
2021/11/22 06:19:47;;;;;;;;;28.75;23.00;;;;;7.68;66.01;101918.25;5050500;28;45509;-81
2021/11/22 06:22:13;;;;;;;;;25.50;21.75;;;;;7.68;65.74;101920.88;5052368;28;46438;-81
2021/11/22 06:24:38;;;;;;;;;27.25;22.50;;;;;7.67;65.78;101929.63;5043284;28;45188;-82
2021/11/22 06:27:04;;;;;;;;;29.50;25.75;;;;;7.72;66.02;101937.47;5056730;28;45438;-82
2021/11/22 06:29:29;;;;;;;;;26.75;23.25;;;;;7.74;65.97;101956.66;5056681;28;45204;-82
2021/11/22 06:31:55;;;;;;;;;28.00;26.00;;;;;7.73;66.02;101947.06;5058188;28;45227;-82
2021/11/22 06:34:21;;;;;;;;;32.50;26.75;;;;;7.73;66.15;101950.53;5060516;28;45254;-82
2021/11/22 06:36:46;;;;;;;;;29.75;25.75;;;;;7.75;65.92;101974.97;5058718;28;45532;-82
2021/11/22 06:39:12;;;;;;;;;30.00;25.75;;;;;7.73;65.60;101963.63;5056221;28;45776;-85
2021/11/22 06:41:37;;;;;;;;;29.00;26.75;;;;;7.73;65.88;101965.38;5045381;28;46371;-82
2021/11/22 06:44:03;;;;;;;;;33.00;29.75;;;;;7.71;65.88;101972.34;5054173;28;45250;-82
2021/11/22 06:46:29;;;;;;;;;24.75;23.25;;;;;7.72;65.69;101974.09;5057257;28;45252;-83
2021/11/22 06:48:54;;;;;;;;;26.50;22.75;;;;;7.71;65.60;101978.47;5043619;28;45406;-83
2021/11/22 06:51:20;;;;;;;;;23.25;22.75;;;;;7.73;65.96;101981.09;5050142;28;46339;-83
2021/11/22 06:53:46;;;;;;;;;26.75;24.00;;;;;7.70;65.64;101981.97;5059864;28;45320;-83
2021/11/22 06:56:11;;;;;;;;;24.75;22.25;;;;;7.72;66.21;101979.34;5055334;28;45459;-82
2021/11/22 06:58:36;;;;;;;;;22.75;22.00;;;;;7.72;65.89;101985.44;5059913;28;45236;-83
2021/11/22 07:01:02;;;;;;;;;22.00;22.00;;;;;7.78;65.79;101995.03;5060190;28;45313;-83
2021/11/22 07:03:29;;;;;;;;;29.00;22.00;;;;;7.72;65.81;101977.59;5058544;28;45395;-82
2021/11/22 07:05:54;;;;;;;;;23.25;18.25;;;;;7.80;65.42;101990.69;5057433;28;45371;-82
2021/11/22 07:08:20;;;;;;;;;26.75;20.75;;;;;7.81;65.80;101979.31;5057919;28;45401;-82
2021/11/22 07:10:46;;;;;;;;;22.25;21.00;;;;;7.83;65.62;101987.16;5055299;28;45225;-82
2021/11/22 07:13:11;;;;;;;;;23.50;21.00;;;;;7.88;65.92;101990.66;5052605;28;45413;-82
2021/11/22 07:15:37;;;;;;;;;18.50;18.25;;;;;7.92;66.03;101996.78;5049153;28;45301;-82
2021/11/22 07:18:05;;;;;;;;;21.25;19.00;;;;;7.91;65.82;102002.88;5056506;28;45263;-82
2021/11/22 07:20:31;;;;;;;;;23.25;19.00;;;;;7.92;65.77;102002.00;5059348;28;46751;-81
2021/11/22 07:22:57;;;;;;;;;19.75;19.50;;;;;7.92;65.76;102008.13;5055343;28;45405;-82
2021/11/22 07:25:23;;;;;;;;;22.25;19.00;;;;;7.92;66.10;102012.47;5048285;28;45702;-81
2021/11/22 07:27:49;;;;;;;;;20.75;18.00;;;;;7.92;65.52;102012.47;5051632;28;45389;-80
2021/11/22 07:30:19;;;;;;;;;20.50;19.25;;;;;7.95;65.39;102020.34;5044434;28;45540;-80
2021/11/22 07:32:45;;;;;;;;;26.25;18.00;;;;;7.98;65.85;102022.94;5052924;28;45421;-80
2021/11/22 07:35:10;;;;;;;;;23.25;18.25;;;;;8.02;65.29;102024.69;5056262;28;45392;-80
2021/11/22 07:37:35;;;;;;;;;23.00;19.25;;;;;8.04;65.89;102030.78;5052769;28;45412;-80
2021/11/22 07:40:01;;;;;;;;;22.00;18.25;;;;;8.08;65.39;102035.13;5048842;28;46269;-80
2021/11/22 07:42:29;;;;;;;;;22.25;19.00;;;;;8.10;65.09;102038.63;5059440;28;45416;-80
2021/11/22 07:44:54;;;;;;;;;23.00;18.00;;;;;8.15;65.60;102050.88;5059273;28;45361;-80
2021/11/22 07:47:20;;;;;;;;;18.50;16.25;;;;;8.16;65.28;102060.44;5059228;28;45219;-80
2021/11/22 07:49:45;;;;;;;;;19.00;15.25;;;;;8.13;65.24;102056.06;5045677;28;46874;-80
2021/11/22 07:52:11;;;;;;;;;21.25;19.50;;;;;8.16;65.40;102063.06;5074211;28;45503;-80
2021/11/22 07:54:36;;;;;;;;;21.25;16.50;;;;;8.14;65.09;102064.81;5053577;28;45553;-81
2021/11/22 07:57:02;;;;;;;;;17.75;16.00;;;;;8.17;65.52;102059.59;5042238;28;45246;-80
2021/11/22 07:59:28;;;;;;;;;16.50;14.00;;;;;8.16;65.01;102063.94;5043890;28;45545;-80
2021/11/22 08:01:53;;;;;;;;;16.00;13.25;;;;;8.18;64.69;102067.44;5070138;28;45842;-80
2021/11/22 08:04:18;;;;;;;;;14.00;12.25;;;;;8.20;64.92;102070.91;5042915;28;45446;-81
2021/11/22 08:06:55;;;;;;;;;14.50;13.50;;;;;8.18;64.88;102077.91;5041877;28;45673;-80
2021/11/22 08:09:30;;;;;;;;;16.00;14.50;;;;;8.17;64.68;102072.69;5048353;28;46245;-81
2021/11/22 08:14:40;;;;;;;;;16.50;12.25;;;;;8.17;64.51;102083.16;5049578;28;45400;-82
2021/11/22 08:17:07;;;;;;;;;16.50;14.75;;;;;8.21;64.60;102087.50;5042007;28;45363;-81
2021/11/22 08:19:33;;;;;;;;;15.00;12.50;;;;;8.22;64.26;102090.13;5049217;28;46201;-82
2021/11/22 08:21:59;;;;;;;;;15.50;14.50;;;;;8.20;64.12;102091.00;5054965;28;45999;-82
2021/11/22 08:24:26;;;;;;;;;17.50;15.00;;;;;8.19;64.36;102090.13;5072717;28;45204;-82
2021/11/22 08:26:52;;;;;;;;;14.25;13.25;;;;;8.24;64.27;102095.38;5071460;28;45444;-82
2021/11/22 08:29:18;;;;;;;;;18.00;17.75;;;;;8.28;64.22;102089.25;5057710;28;45577;-82
2021/11/22 08:31:44;;;;;;;;;14.75;14.00;;;;;8.33;64.10;102100.59;5049904;28;45517;-82
2021/11/22 08:34:10;;;;;;;;;18.25;13.50;;;;;8.36;63.91;102089.22;5058906;28;45502;-83
2021/11/22 08:36:35;;;;;;;;;17.00;14.00;;;;;8.42;63.91;102091.81;5047265;28;45405;-82
2021/11/22 08:39:02;;;;;;;;;15.75;12.50;;;;;8.42;63.97;102096.22;5057771;28;45419;-82
2021/11/22 08:41:27;;;;;;;;;14.00;13.00;;;;;8.44;63.10;102095.31;5054745;28;45335;-82
2021/11/22 08:43:53;;;;;;;;;20.75;14.50;;;;;8.43;63.47;102096.22;5056601;28;45457;-83
2021/11/22 08:46:18;;;;;;;;;13.75;13.00;;;;;8.48;63.72;102105.78;5042806;28;45272;-83
2021/11/22 08:48:44;;;;;;;;;13.50;12.25;;;;;8.47;63.14;102099.69;5057022;28;48206;-83
2021/11/22 08:51:09;;;;;;;;;14.00;13.00;;;;;8.46;63.01;102103.19;5041729;28;45457;-83
2021/11/22 08:53:35;;;;;;;;;12.00;10.50;;;;;8.47;62.88;102106.69;5061085;28;45392;-81
2021/11/22 08:56:01;;;;;;;;;14.75;12.00;;;;;8.47;63.10;102101.44;5061883;28;45531;-80
2021/11/22 08:58:26;;;;;;;;;14.00;14.00;;;;;8.50;63.45;102115.41;5077165;28;46580;-80
2021/11/22 09:00:52;;;;;;;;;14.75;12.75;;;;;8.46;62.85;102118.03;5052018;28;45215;-80
2021/11/22 09:03:17;;;;;;;;;14.75;13.25;;;;;8.46;63.01;102124.16;5058158;28;45433;-80
2021/11/22 09:05:43;;;;;;;;;15.00;12.00;;;;;8.46;63.63;102128.50;5053515;28;45435;-80
2021/11/22 09:08:08;;;;;;;;;11.50;11.50;;;;;8.50;63.38;102125.88;5046586;28;47391;-80
2021/11/22 09:10:34;;;;;;;;;9.75;9.75;;;;;8.53;63.10;102125.88;5044043;28;45459;-81
2021/11/22 09:13:00;;;;;;;;;7.25;7.25;;;;;8.55;62.68;102139.84;5048347;28;45404;-81
2021/11/22 09:15:25;;;;;;;;;11.00;11.00;;;;;8.53;62.93;102132.88;5055649;28;45349;-81
2021/11/22 09:17:51;;;;;;;;;9.50;8.50;;;;;8.58;62.43;102144.25;5042454;28;46973;-81
2021/11/22 09:20:16;;;;;;;;;10.75;9.50;;;;;8.59;63.03;102142.50;5054900;28;45590;-81
2021/11/22 09:22:43;;;;;;;;;10.75;8.00;;;;;8.62;62.42;102145.97;5051371;28;45491;-81
2021/11/22 09:25:10;;;;;;;;;12.75;12.50;;;;;8.70;62.98;102159.06;5050883;28;45421;-87
2021/11/22 09:27:36;;;;;;;;;11.00;7.75;;;;;8.71;62.33;102155.59;5053042;28;45704;-87
2021/11/22 09:30:03;;;;;;;;;12.75;11.25;;;;;8.71;62.24;102159.97;5044228;28;45666;-87
2021/11/22 09:32:28;;;;;;;;;15.50;12.50;;;;;8.73;62.04;102156.47;5041465;28;45860;-87
2021/11/22 09:34:54;;;;;;;;;13.75;10.00;;;;;8.78;62.40;102162.56;5048448;28;45974;-86
2021/11/22 09:37:19;;;;;;;;;13.75;13.00;;;;;8.78;61.80;102164.31;5056440;28;45448;-85
2021/11/22 09:39:44;;;;;;;;;13.50;10.50;;;;;8.84;61.95;102168.69;5055453;28;45554;-85
2021/11/22 09:42:10;;;;;;;;;15.50;11.25;;;;;8.84;61.18;102161.66;5049131;28;45463;-86
2021/11/22 09:44:35;;;;;;;;;10.25;7.25;;;;;8.88;61.89;102175.66;5041120;28;45533;-85
2021/11/22 09:47:02;;;;;;;;;9.50;8.75;;;;;8.93;61.85;102170.38;5044817;28;45559;-86
2021/11/22 09:49:27;;;;;;;;;12.00;7.00;;;;;8.94;61.69;102175.63;5050714;28;45783;-86
2021/11/22 09:51:55;;;;;;;;;9.50;8.50;;;;;8.95;60.85;102182.63;5056334;28;45546;-85
2021/11/22 09:54:20;;;;;;;;;14.00;12.25;;;;;8.99;61.63;102186.97;5055200;28;45484;-86
2021/11/22 09:56:49;;;;;;;;;15.50;12.25;;;;;9.02;61.12;102185.22;5047505;28;46186;-86
2021/11/22 09:59:15;;;;;;;;;8.25;8.00;;;;;9.07;61.30;102186.06;5057164;28;45758;-86
2021/11/22 10:01:41;;;;;;;;;12.50;10.75;;;;;9.14;60.82;102198.28;5053961;28;45352;-86
2021/11/22 10:04:12;;;;;;;;;44.75;31.50;;;;;9.13;60.64;102199.19;5054874;28;45555;-85
2021/11/22 10:06:44;;;;;;;;;11.50;8.00;;;;;9.15;61.08;102202.66;5049623;28;47979;-87
2021/11/22 10:09:41;;;;;;;;;9.75;8.25;;;;;9.19;60.99;102203.53;5043160;28;45978;-86
2021/11/22 10:12:21;;;;;;;;;13.75;9.75;;;;;9.21;60.77;102207.88;5054955;28;45302;-86
2021/11/22 10:14:48;;;;;;;;;10.50;8.75;;;;;9.26;61.01;102199.16;5045521;28;45462;-86
2021/11/22 10:17:34;;;;;;;;;14.25;11.50;;;;;9.22;59.28;102211.38;5051387;28;46187;-86
2021/11/22 10:20:05;;;;;;;;;10.75;8.25;;;;;9.22;60.30;102212.25;5047349;28;45294;-86
2021/11/22 10:23:00;;;;;;;;;10.75;10.25;;;;;9.21;60.14;102201.78;5050310;28;45460;-85
2021/11/22 10:25:37;;;;;;;;;11.00;8.00;;;;;9.28;60.15;102210.50;5056400;28;45451;-86
2021/11/22 10:28:07;;;;;;;;;9.75;8.00;;;;;9.29;60.17;102220.09;5054840;28;45399;-86
2021/11/22 10:30:37;;;;;;;;;13.25;10.75;;;;;9.30;59.38;102216.63;5041876;28;45331;-86
2021/11/22 10:33:05;;;;;;;;;11.75;9.25;;;;;9.29;60.26;102217.47;5043910;28;45398;-86
2021/11/22 10:35:33;;;;;;;;;13.00;9.25;;;;;9.29;60.04;102220.09;5058973;28;46991;-87
2021/11/22 10:38:05;;;;;;;;;28.25;19.00;;;;;9.33;59.62;102214.84;5060071;28;46224;-86
2021/11/22 10:40:34;;;;;;;;;10.25;8.75;;;;;9.37;59.73;102218.31;5050997;28;45129;-86
2021/11/22 10:43:00;;;;;;;;;15.75;8.25;;;;;9.42;59.70;102227.06;5058702;28;45276;-86
2021/11/22 10:45:34;;;;;;;;;41.75;28.00;;;;;9.41;59.44;102217.44;5042075;28;45683;-87
2021/11/22 10:51:04;;;;;;;;;11.75;10.00;;;;;9.49;59.13;102238.41;5035765;28;47167;-86
2021/11/22 10:53:41;;;;;;;;;14.00;9.75;;;;;9.52;58.75;102237.50;5044894;28;45500;-86
2021/11/22 10:56:10;;;;;;;;;10.75;9.00;;;;;9.55;59.12;102232.25;5058471;28;45547;-85
2021/11/22 10:58:40;;;;;;;;;13.75;10.75;;;;;9.59;59.08;102220.84;5057399;28;46484;-86
2021/11/22 11:01:18;;;;;;;;;12.50;10.00;;;;;9.62;59.24;102226.09;5058894;28;45256;-86
2021/11/22 11:03:55;;;;;;;;;11.50;11.00;;;;;9.68;58.73;102222.56;5041869;28;45247;-86
2021/11/22 11:06:33;;;;;;;;;12.25;9.75;;;;;9.73;58.94;102233.06;5051242;28;46909;-86
2021/11/22 11:09:00;;;;;;;;;16.50;10.50;;;;;9.78;59.01;102228.63;5046103;28;45405;-85
2021/11/22 11:11:26;;;;;;;;;10.00;9.50;;;;;9.82;57.82;102219.88;5055951;28;45699;-86
2021/11/22 11:13:52;;;;;;;;;9.50;8.00;;;;;9.83;58.46;102252.25;5049285;28;45365;-86
2021/11/22 11:16:20;;;;;;;;;11.75;10.00;;;;;9.78;57.99;102232.13;5054026;28;45601;-86
2021/11/22 11:19:04;;;;;;;;;7.25;5.25;;;;;9.78;58.32;102231.25;5059828;28;45565;-86
2021/11/22 11:21:32;;;;;;;;;13.00;10.25;;;;;9.76;57.69;102240.91;5058480;28;45933;-88
2021/11/22 11:23:59;;;;;;;;;12.75;9.00;;;;;9.74;58.10;102227.78;5058320;28;45248;-87
2021/11/22 11:26:25;;;;;;;;;7.75;7.75;;;;;9.74;57.91;102234.78;5049546;28;45492;-85